createdAt,value
2018-08-13T00:00:30.067Z,62.20
2018-08-13T00:02:57.366Z,62.40
2018-08-13T00:05:24.688Z,62.90
2018-08-13T00:07:52.000Z,63.10
2018-08-13T00:10:19.306Z,63.60
2018-08-13T00:12:46.647Z,63.60
2018-08-13T00:15:13.974Z,64.10
2018-08-13T00:17:41.341Z,64.20
2018-08-13T00:20:08.575Z,63.80
2018-08-13T00:22:35.879Z,64.20
2018-08-13T00:25:03.423Z,64.20
2018-08-13T00:27:30.736Z,65.00
2018-08-13T00:29:58.674Z,65.00
2018-08-13T00:32:25.981Z,64.80
2018-08-13T00:34:53.289Z,64.10
2018-08-13T00:37:20.618Z,63.30
2018-08-13T00:39:47.955Z,63.70
2018-08-13T00:42:15.308Z,64.30
2018-08-13T00:44:42.602Z,64.20
2018-08-13T00:47:09.891Z,64.10
2018-08-13T00:49:37.205Z,63.90
2018-08-13T00:52:04.656Z,63.80
2018-08-13T00:54:31.980Z,64.00
2018-08-13T00:56:59.258Z,64.30
2018-08-13T00:59:26.579Z,63.50
2018-08-13T01:01:53.875Z,63.20
2018-08-13T01:04:21.190Z,63.10
2018-08-13T01:06:48.541Z,63.70
2018-08-13T01:09:15.902Z,64.10
2018-08-13T01:11:43.247Z,63.80
2018-08-13T01:14:10.538Z,64.10
2018-08-13T01:16:37.867Z,64.00
2018-08-13T01:19:05.195Z,64.60
2018-08-13T01:21:32.494Z,64.50
2018-08-13T01:23:59.809Z,65.50
2018-08-13T01:26:27.124Z,65.10
2018-08-13T01:28:54.470Z,65.60
2018-08-13T01:31:21.802Z,65.80
2018-08-13T01:33:49.125Z,65.00
2018-08-13T01:36:16.457Z,65.60
2018-08-13T01:38:44.164Z,65.50
2018-08-13T01:41:11.430Z,65.50
2018-08-13T01:43:38.727Z,65.80
2018-08-13T01:46:06.134Z,66.10
2018-08-13T01:48:33.465Z,66.40
2018-08-13T01:51:00.762Z,67.10
2018-08-13T01:53:28.074Z,66.80
2018-08-13T01:55:55.400Z,67.90
2018-08-13T01:58:22.706Z,68.00
2018-08-13T02:00:50.038Z,68.20
2018-08-13T02:03:17.377Z,68.00
2018-08-13T02:05:44.716Z,68.00
2018-08-13T02:08:12.049Z,67.60
2018-08-13T02:10:39.364Z,67.00
2018-08-13T02:13:06.718Z,67.50
2018-08-13T02:15:34.015Z,67.80
2018-08-13T02:18:01.327Z,67.40
2018-08-13T02:20:28.653Z,67.80
2018-08-13T02:22:55.941Z,67.00
2018-08-13T02:25:23.310Z,67.30
2018-08-13T02:27:50.614Z,66.80
2018-08-13T02:30:17.917Z,66.90
2018-08-13T02:32:45.261Z,67.30
2018-08-13T02:35:12.572Z,67.90
2018-08-13T02:37:39.896Z,68.10
2018-08-13T02:40:07.792Z,68.00
2018-08-13T02:42:35.097Z,67.80
2018-08-13T02:45:02.415Z,68.20
2018-08-13T02:47:29.709Z,68.00
2018-08-13T02:49:57.020Z,67.30
2018-08-13T02:52:24.325Z,67.30
2018-08-13T02:54:51.630Z,67.70
2018-08-13T02:57:18.955Z,67.70
2018-08-13T02:59:46.298Z,67.30
2018-08-13T03:02:13.619Z,68.10
2018-08-13T03:04:40.947Z,68.10
2018-08-13T03:07:08.228Z,67.50
2018-08-13T03:09:35.576Z,68.10
2018-08-13T03:12:02.908Z,67.90
2018-08-13T03:14:30.206Z,68.00
2018-08-13T03:16:57.524Z,67.30
2018-08-13T03:19:29.972Z,67.00
2018-08-13T03:21:57.327Z,66.30
2018-08-13T03:24:24.637Z,66.10
2018-08-13T03:26:51.948Z,66.50
2018-08-13T03:29:19.276Z,66.60
2018-08-13T03:31:46.608Z,67.10
2018-08-13T03:34:13.936Z,67.40
2018-08-13T03:36:41.239Z,67.10
2018-08-13T03:39:09.070Z,67.70
2018-08-13T03:41:36.410Z,67.70
2018-08-13T03:44:03.772Z,67.70
2018-08-13T03:46:31.094Z,68.20
2018-08-13T03:48:58.397Z,68.10
2018-08-13T03:51:25.726Z,67.60
2018-08-13T03:53:53.106Z,68.40
2018-08-13T03:56:20.355Z,68.40
2018-08-13T03:58:47.727Z,67.90
2018-08-13T04:01:15.030Z,67.90
2018-08-13T04:03:42.344Z,68.30
2018-08-13T04:06:09.691Z,68.40
2018-08-13T04:08:37.055Z,68.10
2018-08-13T04:11:04.467Z,68.10
2018-08-13T04:13:31.783Z,67.70
2018-08-13T04:15:59.101Z,68.20
2018-08-13T04:18:26.421Z,68.40
2018-08-13T04:20:53.748Z,67.10
2018-08-13T04:23:21.134Z,67.00
2018-08-13T04:25:48.478Z,67.00
2018-08-13T04:28:15.798Z,67.10
2018-08-13T04:30:43.134Z,67.90
2018-08-13T04:33:10.443Z,68.00
2018-08-13T04:35:37.839Z,67.40
2018-08-13T04:38:05.154Z,67.40
2018-08-13T04:40:32.476Z,67.50
2018-08-13T04:42:59.774Z,67.50
2018-08-13T04:45:27.091Z,67.50
2018-08-13T04:47:54.408Z,67.20
2018-08-13T04:50:21.714Z,67.40
2018-08-13T04:52:49.040Z,68.10
2018-08-13T04:55:16.431Z,67.90
2018-08-13T04:57:43.733Z,66.70
2018-08-13T05:00:11.139Z,66.50
2018-08-13T05:02:38.598Z,66.60
2018-08-13T05:05:06.007Z,65.60
2018-08-13T05:07:33.353Z,65.30
2018-08-13T05:10:00.814Z,65.10
2018-08-13T05:12:28.114Z,65.30
2018-08-13T05:14:55.443Z,65.30
2018-08-13T05:17:22.766Z,65.60
2018-08-13T05:19:50.075Z,64.20
2018-08-13T05:22:17.406Z,64.30
2018-08-13T05:24:44.858Z,63.70
2018-08-13T05:27:12.171Z,63.70
2018-08-13T05:29:39.514Z,64.60
2018-08-13T05:32:06.838Z,66.00
2018-08-13T05:34:34.132Z,66.20
2018-08-13T05:37:01.812Z,66.10
2018-08-13T05:42:11.470Z,65.50
2018-08-13T05:44:38.763Z,64.80
2018-08-13T05:47:06.122Z,64.60
2018-08-13T05:49:33.453Z,64.70
2018-08-13T05:52:01.056Z,64.60
2018-08-13T05:54:28.380Z,65.10
2018-08-13T05:56:55.710Z,65.40
2018-08-13T05:59:23.035Z,65.40
2018-08-13T06:01:50.441Z,65.40
2018-08-13T06:04:17.994Z,67.90
2018-08-13T06:06:45.332Z,69.30
2018-08-13T06:09:12.641Z,71.70
2018-08-13T06:11:39.992Z,74.40
2018-08-13T06:14:07.283Z,78.50
2018-08-13T06:16:34.640Z,81.10
2018-08-13T06:19:02.011Z,83.40
2018-08-13T06:21:29.418Z,84.20
2018-08-13T06:23:56.745Z,85.80
2018-08-13T06:26:24.234Z,86.90
2018-08-13T06:28:51.566Z,86.80
2018-08-13T06:31:18.922Z,87.00
2018-08-13T06:33:46.355Z,87.50
2018-08-13T06:36:13.670Z,86.90
2018-08-13T06:38:40.999Z,87.60
2018-08-13T06:41:08.337Z,87.20
2018-08-13T06:43:35.801Z,87.50
2018-08-13T06:46:03.101Z,86.80
2018-08-13T06:48:30.494Z,86.30
2018-08-13T06:50:57.803Z,85.50
2018-08-13T06:53:25.124Z,85.20
2018-08-13T06:55:52.496Z,84.20
2018-08-13T06:58:19.825Z,84.40
2018-08-13T07:00:47.267Z,84.90
2018-08-13T07:03:14.558Z,84.70
2018-08-13T07:05:41.889Z,85.10
2018-08-13T07:08:09.202Z,84.90
2018-08-13T07:10:36.543Z,86.10
2018-08-13T07:13:03.852Z,86.50
2018-08-13T07:15:31.230Z,86.10
2018-08-13T07:17:58.635Z,84.60
2018-08-13T07:20:25.933Z,82.90
2018-08-13T07:22:53.258Z,82.30
2018-08-13T07:25:20.610Z,83.30
2018-08-13T07:27:47.999Z,84.20
2018-08-13T07:30:15.305Z,83.60
2018-08-13T07:32:42.627Z,84.40
2018-08-13T07:35:09.945Z,84.50
2018-08-13T07:37:37.300Z,84.60
2018-08-13T07:40:05.992Z,84.90
2018-08-13T07:42:33.318Z,84.40
2018-08-13T07:45:00.618Z,84.20
2018-08-13T07:47:27.947Z,84.40
2018-08-13T07:49:55.291Z,84.60
2018-08-13T07:52:22.614Z,84.40
2018-08-13T07:54:49.969Z,84.80
2018-08-13T07:57:17.278Z,85.00
2018-08-13T07:59:44.625Z,84.80
2018-08-13T08:02:11.936Z,84.50
2018-08-13T08:04:39.268Z,83.90
2018-08-13T08:07:07.155Z,83.80
2018-08-13T08:09:34.495Z,83.90
2018-08-13T08:12:01.794Z,84.30
2018-08-13T08:14:29.150Z,84.50
2018-08-13T08:16:56.498Z,83.60
2018-08-13T08:19:23.806Z,83.60
2018-08-13T08:21:51.134Z,83.60
2018-08-13T08:24:18.524Z,84.30
2018-08-13T08:26:46.828Z,84.50
2018-08-13T08:29:14.190Z,84.60
2018-08-13T08:31:41.480Z,84.70
2018-08-13T08:34:08.777Z,84.60
2018-08-13T08:36:36.095Z,84.80
2018-08-13T08:39:07.165Z,84.90
2018-08-13T08:41:34.752Z,85.00
2018-08-13T08:44:02.078Z,84.90
2018-08-13T08:46:29.399Z,85.00
2018-08-13T08:48:56.719Z,85.00
2018-08-13T08:51:24.032Z,84.10
2018-08-13T08:53:51.367Z,84.10
2018-08-13T08:56:18.687Z,84.50
2018-08-13T08:58:46.018Z,84.70
2018-08-13T09:01:13.328Z,84.50
2018-08-13T09:03:40.661Z,84.40
2018-08-13T09:06:08.000Z,84.70
2018-08-13T09:08:35.398Z,84.60
2018-08-13T09:11:02.779Z,84.00
2018-08-13T09:13:30.124Z,84.00
2018-08-13T09:15:57.434Z,84.20
2018-08-13T09:18:36.160Z,83.20
2018-08-13T09:21:14.931Z,82.70
2018-08-13T09:23:53.740Z,82.40
2018-08-13T09:26:32.457Z,81.70
2018-08-13T09:29:11.302Z,81.80
2018-08-13T09:32:20.455Z,81.60
2018-08-13T09:35:01.076Z,81.30
2018-08-13T09:37:28.464Z,81.90
2018-08-13T09:39:55.800Z,82.10
2018-08-13T09:42:23.107Z,81.30
2018-08-13T09:44:50.500Z,81.10
2018-08-13T09:47:17.879Z,81.10
2018-08-13T09:49:45.227Z,81.40
2018-08-13T09:52:12.558Z,82.00
2018-08-13T09:54:39.886Z,82.10
2018-08-13T09:57:07.262Z,81.70
2018-08-13T09:59:34.607Z,80.40
2018-08-13T10:02:01.899Z,80.00
2018-08-13T10:04:29.231Z,80.00
2018-08-13T10:06:56.543Z,80.50
2018-08-13T10:09:23.908Z,80.40
2018-08-13T10:11:51.187Z,80.50
2018-08-13T10:14:18.530Z,80.70
2018-08-13T10:16:45.910Z,80.50
2018-08-13T10:19:13.200Z,80.70
2018-08-13T10:21:40.518Z,80.80
2018-08-13T10:24:07.964Z,81.10
2018-08-13T10:26:35.278Z,81.00
2018-08-13T10:29:02.687Z,81.00
2018-08-13T10:31:30.045Z,81.60
2018-08-13T10:33:57.355Z,81.90
2018-08-13T10:36:24.771Z,82.00
2018-08-13T10:38:52.076Z,82.00
2018-08-13T10:41:19.779Z,82.30
2018-08-13T10:43:47.112Z,82.30
2018-08-13T10:46:14.494Z,82.30
2018-08-13T10:48:41.811Z,82.80
2018-08-13T10:51:09.228Z,83.10
2018-08-13T10:53:36.535Z,83.10
2018-08-13T10:56:04.248Z,83.30
2018-08-13T10:58:31.561Z,83.20
2018-08-13T11:00:58.898Z,83.40
2018-08-13T11:03:26.285Z,83.70
2018-08-13T11:05:53.744Z,83.80
2018-08-13T11:08:21.121Z,84.10
2018-08-13T11:10:48.447Z,84.40
2018-08-13T11:13:15.784Z,84.40
2018-08-13T11:15:43.140Z,84.80
2018-08-13T11:18:10.475Z,85.00
2018-08-13T11:20:37.812Z,85.20
2018-08-13T11:23:05.210Z,85.20
2018-08-13T11:25:32.543Z,85.60
2018-08-13T11:27:59.853Z,85.80
2018-08-13T11:30:27.207Z,85.90
2018-08-13T11:32:54.550Z,86.60
2018-08-13T11:35:21.920Z,87.00
2018-08-13T11:37:49.242Z,87.20
2018-08-13T11:40:16.596Z,87.30
2018-08-13T11:42:44.016Z,87.70
2018-08-13T11:45:11.574Z,88.00
2018-08-13T11:47:38.894Z,87.90
2018-08-13T11:50:14.539Z,87.80
2018-08-13T11:52:41.875Z,87.60
2018-08-13T11:55:09.194Z,88.00
2018-08-13T11:57:36.515Z,88.40
2018-08-13T12:00:05.811Z,88.50
2018-08-13T12:02:33.130Z,87.90
2018-08-13T12:05:00.460Z,87.30
2018-08-13T12:07:27.758Z,87.70
2018-08-13T12:09:55.098Z,86.90
2018-08-13T12:12:22.475Z,85.60
2018-08-13T12:14:49.773Z,84.60
2018-08-13T12:17:17.089Z,84.40
2018-08-13T12:19:44.414Z,83.60
2018-08-13T12:22:11.724Z,83.30
2018-08-13T12:24:39.044Z,82.40
2018-08-13T12:27:06.377Z,81.00
2018-08-13T12:29:33.804Z,80.80
2018-08-13T12:32:01.195Z,81.00
2018-08-13T12:34:28.606Z,80.40
2018-08-13T12:36:56.068Z,80.50
2018-08-13T12:39:23.408Z,80.60
2018-08-13T12:41:50.938Z,80.70
2018-08-13T12:44:18.247Z,80.10
2018-08-13T12:46:45.941Z,80.30
2018-08-13T12:49:13.228Z,80.80
2018-08-13T12:51:40.616Z,79.80
2018-08-13T12:54:07.980Z,79.20
2018-08-13T12:56:35.910Z,78.30
2018-08-13T12:59:03.195Z,79.00
2018-08-13T13:01:30.531Z,79.30
2018-08-13T13:03:57.832Z,79.00
2018-08-13T13:06:25.237Z,80.60
2018-08-13T13:08:53.584Z,79.20
2018-08-13T13:11:21.401Z,77.90
2018-08-13T13:13:48.775Z,76.90
2018-08-13T13:16:16.087Z,77.60
2018-08-13T13:18:43.414Z,76.80
2018-08-13T13:21:10.779Z,75.30
2018-08-13T13:23:38.132Z,75.60
2018-08-13T13:26:05.513Z,75.30
2018-08-13T13:28:33.566Z,74.50
2018-08-13T13:31:00.970Z,74.50
2018-08-13T13:33:28.406Z,74.80
2018-08-13T13:35:56.219Z,75.10
2018-08-13T13:38:23.662Z,74.60
2018-08-13T13:40:51.100Z,73.70
2018-08-13T13:43:18.440Z,73.00
2018-08-13T13:45:45.978Z,73.30
2018-08-13T13:48:13.287Z,73.60
2018-08-13T13:50:40.628Z,72.30
2018-08-13T13:53:07.942Z,71.10
2018-08-13T13:55:35.670Z,71.00
2018-08-13T13:58:03.163Z,71.30
2018-08-13T14:00:30.808Z,70.70
2018-08-13T14:02:58.227Z,71.10
2018-08-13T14:05:26.194Z,70.70
2018-08-13T14:07:53.915Z,70.60
2018-08-13T14:10:21.299Z,70.00
2018-08-13T14:12:48.646Z,69.30
2018-08-13T14:15:18.102Z,69.90
2018-08-13T14:17:45.651Z,69.50
2018-08-13T14:20:13.050Z,69.60
2018-08-13T14:22:40.484Z,69.40
2018-08-13T14:25:08.802Z,69.90
2018-08-13T14:27:36.202Z,70.40
2018-08-13T14:30:10.900Z,70.90
2018-08-13T14:32:38.236Z,70.60
2018-08-13T14:35:05.592Z,70.70
2018-08-13T14:37:32.907Z,70.40
2018-08-13T14:40:00.217Z,70.90
2018-08-13T14:42:27.620Z,70.70
2018-08-13T14:44:55.241Z,71.10
2018-08-13T14:47:23.304Z,71.10
2018-08-13T14:49:50.677Z,70.60
2018-08-13T14:52:18.010Z,71.00
2018-08-13T14:54:45.382Z,71.10
2018-08-13T14:57:12.768Z,70.40
2018-08-13T14:59:40.080Z,70.40
2018-08-13T15:02:07.388Z,70.50
2018-08-13T15:04:34.728Z,70.50
2018-08-13T15:07:02.070Z,70.70
2018-08-13T15:09:29.594Z,71.20
2018-08-13T15:11:56.974Z,70.80
2018-08-13T15:14:24.461Z,71.20
2018-08-13T15:16:51.787Z,71.30
2018-08-13T15:19:19.122Z,71.30
2018-08-13T15:21:46.539Z,71.60
2018-08-13T15:24:13.851Z,70.70
2018-08-13T15:26:41.520Z,71.00
2018-08-13T15:29:08.988Z,69.60
2018-08-13T15:31:36.449Z,69.90
2018-08-13T15:34:04.422Z,70.30
2018-08-13T15:36:31.779Z,69.40
2018-08-13T15:38:59.110Z,69.40
2018-08-13T15:41:26.491Z,69.50
2018-08-13T15:43:53.815Z,68.60
2018-08-13T15:46:21.154Z,68.80
2018-08-13T15:48:48.513Z,69.70
2018-08-13T15:51:15.862Z,69.40
2018-08-13T15:53:43.185Z,68.60
2018-08-13T15:56:10.504Z,67.80
2018-08-13T15:58:37.810Z,67.30
2018-08-13T16:01:05.114Z,66.50
2018-08-13T16:03:32.470Z,66.00
2018-08-13T16:05:59.909Z,65.00
2018-08-13T16:08:27.231Z,64.40
2018-08-13T16:10:54.632Z,63.20
2018-08-13T16:13:21.973Z,63.40
2018-08-13T16:15:49.365Z,64.50
2018-08-13T16:18:16.630Z,63.80
2018-08-13T16:20:43.979Z,62.80
2018-08-13T16:23:11.278Z,62.30
2018-08-13T16:25:38.662Z,62.10
2018-08-13T16:28:05.999Z,61.70
2018-08-13T16:30:33.386Z,61.60
2018-08-13T16:33:00.796Z,60.10
2018-08-13T16:35:28.178Z,58.80
2018-08-13T16:37:55.499Z,57.60
2018-08-13T16:40:22.855Z,54.70
2018-08-13T16:42:50.209Z,53.60
2018-08-13T16:45:18.489Z,51.80
2018-08-13T16:47:45.816Z,51.40
2018-08-13T16:50:21.375Z,50.00
2018-08-13T16:52:48.728Z,47.60
2018-08-13T16:55:16.044Z,47.10
2018-08-13T16:57:43.461Z,48.30
2018-08-13T17:00:12.678Z,48.50
2018-08-13T17:02:40.139Z,49.90
2018-08-13T17:05:08.263Z,51.30
2018-08-13T17:07:35.590Z,51.10
2018-08-13T17:10:03.507Z,51.10
2018-08-13T17:12:30.841Z,51.00
2018-08-13T17:14:58.164Z,51.20
2018-08-13T17:17:25.537Z,51.60
2018-08-13T17:19:52.854Z,52.90
2018-08-13T17:22:20.210Z,54.00
2018-08-13T17:24:47.528Z,55.10
2018-08-13T17:27:14.833Z,56.10
2018-08-13T17:29:42.148Z,56.60
2018-08-13T17:32:09.467Z,57.00
2018-08-13T17:34:36.799Z,57.80
2018-08-13T17:37:04.884Z,58.40
2018-08-13T17:39:32.228Z,59.00
2018-08-13T17:41:59.569Z,58.60
2018-08-13T17:44:26.963Z,59.30
2018-08-13T17:46:54.272Z,60.10
2018-08-13T17:49:21.606Z,60.10
2018-08-13T17:51:48.932Z,60.30
2018-08-13T17:54:16.239Z,60.40
2018-08-13T17:56:43.599Z,62.10
2018-08-13T17:59:10.909Z,71.80
2018-08-13T18:01:38.227Z,82.40
2018-08-13T18:04:05.572Z,85.40
2018-08-13T18:06:32.912Z,87.40
2018-08-13T18:09:00.226Z,87.80
2018-08-13T18:11:27.560Z,88.40
2018-08-13T18:13:54.884Z,88.80
2018-08-13T18:16:22.272Z,89.10
2018-08-13T18:18:49.582Z,86.60
2018-08-13T18:21:16.980Z,85.40
2018-08-13T18:23:44.238Z,84.40
2018-08-13T18:26:11.531Z,84.00
2018-08-13T18:28:38.851Z,82.80
2018-08-13T18:31:07.178Z,82.20
2018-08-13T18:33:34.528Z,82.10
2018-08-13T18:36:01.818Z,83.00
2018-08-13T18:38:29.713Z,83.10
2018-08-13T18:40:57.039Z,84.00
2018-08-13T18:43:24.359Z,82.00
2018-08-13T18:45:51.674Z,82.60
2018-08-13T18:48:19.057Z,83.40
2018-08-13T18:50:46.371Z,83.10
2018-08-13T18:53:13.705Z,84.40
2018-08-13T18:55:41.002Z,84.00
2018-08-13T18:58:08.338Z,84.80
2018-08-13T19:00:35.635Z,85.20
2018-08-13T19:03:02.992Z,81.80
2018-08-13T19:05:33.090Z,83.30
2018-08-13T19:08:01.567Z,84.70
2018-08-13T19:10:29.062Z,84.70
2018-08-13T19:12:56.382Z,85.00
2018-08-13T19:15:23.703Z,85.30
2018-08-13T19:17:51.407Z,83.90
2018-08-13T19:20:18.815Z,84.70
2018-08-13T19:22:46.288Z,85.50
2018-08-13T19:25:25.601Z,84.60
2018-08-13T19:27:53.026Z,86.00
2018-08-13T19:30:20.394Z,85.40
2018-08-13T19:32:47.743Z,84.60
2018-08-13T19:35:15.079Z,84.40
2018-08-13T19:37:42.648Z,83.50
2018-08-13T19:40:11.628Z,84.50
2018-08-13T19:42:38.994Z,84.90
2018-08-13T19:45:07.600Z,85.90
2018-08-13T19:47:34.924Z,85.30
2018-08-13T19:50:02.278Z,85.20
2018-08-13T19:52:29.716Z,85.60
2018-08-13T19:54:57.459Z,84.60
2018-08-13T19:57:24.923Z,84.60
2018-08-13T19:59:52.250Z,84.80
2018-08-13T20:02:19.555Z,85.30
2018-08-13T20:04:46.877Z,85.60
2018-08-13T20:07:14.233Z,85.60
2018-08-13T20:09:41.540Z,86.10
2018-08-13T20:12:08.837Z,85.80
2018-08-13T20:14:36.160Z,85.50
2018-08-13T20:17:03.461Z,85.60
2018-08-13T20:19:30.807Z,85.60
2018-08-13T20:21:58.289Z,85.40
2018-08-13T20:24:25.649Z,84.90
2018-08-13T20:26:52.959Z,85.00
2018-08-13T20:29:20.284Z,84.80
2018-08-13T20:31:47.594Z,84.80
2018-08-13T20:34:14.918Z,84.80
2018-08-13T20:36:42.218Z,85.10
2018-08-13T20:39:10.146Z,85.10
2018-08-13T20:41:37.478Z,84.80
2018-08-13T20:44:04.885Z,85.50
2018-08-13T20:46:32.244Z,85.10
2018-08-13T20:48:59.659Z,84.60
2018-08-13T20:51:27.009Z,84.40
2018-08-13T20:53:54.325Z,84.40
2018-08-13T20:56:21.643Z,84.80
2018-08-13T20:58:48.986Z,84.80
2018-08-13T21:01:16.327Z,84.80
2018-08-13T21:03:43.767Z,84.90
2018-08-13T21:06:10.987Z,85.10
2018-08-13T21:08:38.344Z,85.20
2018-08-13T21:11:05.690Z,84.40
2018-08-13T21:13:33.091Z,84.10
2018-08-13T21:16:00.483Z,84.60
2018-08-13T21:18:27.820Z,83.90
2018-08-13T21:20:55.133Z,83.90
2018-08-13T21:23:22.437Z,84.20
2018-08-13T21:25:49.742Z,83.90
2018-08-13T21:28:17.115Z,84.00
2018-08-13T21:30:44.427Z,83.60
2018-08-13T21:33:11.788Z,83.70
2018-08-13T21:35:39.159Z,83.80
2018-08-13T21:38:06.535Z,84.30
2018-08-13T21:40:33.851Z,84.70
2018-08-13T21:43:01.208Z,84.80
2018-08-13T21:45:28.612Z,84.60
2018-08-13T21:47:55.928Z,83.80
2018-08-13T21:50:23.260Z,84.60
2018-08-13T21:52:50.643Z,85.20
2018-08-13T21:55:18.011Z,85.00
2018-08-13T21:57:45.725Z,85.20
2018-08-13T22:00:25.106Z,84.70
2018-08-13T22:02:52.459Z,84.80
2018-08-13T22:05:19.810Z,84.80
2018-08-13T22:07:47.135Z,84.60
2018-08-13T22:10:14.504Z,84.00
2018-08-13T22:12:41.862Z,83.70
2018-08-13T22:15:16.298Z,83.70
2018-08-13T22:17:43.633Z,83.00
2018-08-13T22:20:10.984Z,83.80
2018-08-13T22:22:38.316Z,84.60
2018-08-13T22:25:09.430Z,84.30
2018-08-13T22:27:36.791Z,84.30
2018-08-13T22:30:05.607Z,84.50
2018-08-13T22:32:33.904Z,84.80
2018-08-13T22:35:01.255Z,84.90
2018-08-13T22:37:28.576Z,85.40
2018-08-13T22:39:56.003Z,85.70
2018-08-13T22:42:23.343Z,85.90
2018-08-13T22:44:50.673Z,85.70
2018-08-13T22:47:18.027Z,85.90
2018-08-13T22:49:45.402Z,85.70
2018-08-13T22:52:12.886Z,86.10
2018-08-13T22:54:40.185Z,86.60
2018-08-13T22:57:07.568Z,86.70
2018-08-13T22:59:34.850Z,87.10
2018-08-13T23:02:02.300Z,86.90
2018-08-13T23:04:29.625Z,87.30
2018-08-13T23:06:56.966Z,87.30
2018-08-13T23:09:24.273Z,87.00
2018-08-13T23:11:51.570Z,86.80
2018-08-13T23:14:18.888Z,86.50
2018-08-13T23:16:46.200Z,85.60
2018-08-13T23:19:13.510Z,85.00
2018-08-13T23:21:40.840Z,84.40
2018-08-13T23:24:08.236Z,84.20
2018-08-13T23:26:35.533Z,84.10
2018-08-13T23:29:02.843Z,84.70
2018-08-13T23:31:30.197Z,85.00
2018-08-13T23:33:57.512Z,84.90
2018-08-13T23:36:24.819Z,84.90
2018-08-13T23:38:52.163Z,84.70
2018-08-13T23:41:19.490Z,84.60
2018-08-13T23:43:46.807Z,84.80
2018-08-13T23:46:14.183Z,84.70
2018-08-13T23:48:41.534Z,84.80
2018-08-13T23:51:08.837Z,84.30
2018-08-13T23:53:36.167Z,84.20
2018-08-13T23:56:03.466Z,84.70
2018-08-13T23:58:30.790Z,84.90
